createdAt,value
2019-04-28T00:00:31.386Z,25.31
2019-04-28T00:01:31.070Z,25.34
2019-04-28T00:02:30.825Z,25.34
2019-04-28T00:03:31.832Z,25.31
2019-04-28T00:04:31.455Z,25.35
2019-04-28T00:05:30.919Z,25.31
2019-04-28T00:06:31.083Z,25.31
2019-04-28T00:07:29.863Z,25.30
2019-04-28T00:08:31.753Z,25.22
2019-04-28T00:09:31.351Z,25.20
2019-04-28T00:10:31.567Z,25.15
2019-04-28T00:11:31.701Z,25.25
2019-04-28T00:12:31.110Z,25.12
2019-04-28T00:13:31.980Z,25.10
2019-04-28T00:14:31.712Z,25.09
2019-04-28T00:15:30.874Z,25.13
2019-04-28T00:16:31.171Z,25.17
2019-04-28T00:17:30.884Z,25.16
2019-04-28T00:18:31.700Z,25.19
2019-04-28T00:19:30.967Z,25.20
2019-04-28T00:20:31.098Z,25.10
2019-04-28T00:21:31.904Z,25.12
2019-04-28T00:22:30.815Z,25.01
2019-04-28T00:23:31.855Z,25.09
2019-04-28T00:24:31.255Z,25.13
2019-04-28T00:25:31.230Z,25.00
2019-04-28T00:26:31.123Z,25.09
2019-04-28T00:27:31.591Z,25.01
2019-04-28T00:28:33.425Z,24.97
2019-04-28T00:29:38.699Z,25.07
2019-04-28T00:30:31.721Z,25.05
2019-04-28T00:31:31.290Z,25.05
2019-04-28T00:32:32.623Z,25.05
2019-04-28T00:33:31.490Z,25.10
2019-04-28T00:34:31.243Z,25.09
2019-04-28T00:35:32.196Z,25.02
2019-04-28T00:36:31.442Z,24.95
2019-04-28T00:37:31.896Z,24.95
2019-04-28T00:38:31.690Z,24.98
2019-04-28T00:39:31.384Z,24.97
2019-04-28T00:40:31.712Z,24.94
2019-04-28T00:41:31.491Z,24.92
2019-04-28T00:42:31.636Z,24.92
2019-04-28T00:43:31.851Z,24.88
2019-04-28T00:44:31.685Z,24.95
2019-04-28T00:45:31.873Z,24.95
2019-04-28T00:46:31.747Z,24.94
2019-04-28T00:47:31.816Z,24.76
2019-04-28T00:48:31.870Z,24.85
2019-04-28T00:49:31.856Z,24.92
2019-04-28T00:50:31.922Z,24.90
2019-04-28T00:51:31.964Z,24.92
2019-04-28T00:52:32.153Z,24.85
2019-04-28T00:53:32.075Z,24.91
2019-04-28T00:54:32.118Z,24.94
2019-04-28T00:55:32.159Z,24.83
2019-04-28T00:56:32.201Z,24.76
2019-04-28T00:57:32.291Z,24.91
2019-04-28T00:58:32.298Z,24.91
2019-04-28T00:59:32.350Z,24.91
2019-04-28T01:00:32.389Z,24.92
2019-04-28T01:01:32.453Z,24.87
2019-04-28T01:02:32.474Z,24.92
2019-04-28T01:03:32.551Z,24.90
2019-04-28T01:04:32.724Z,24.88
2019-04-28T01:05:32.642Z,24.88
2019-04-28T01:06:32.730Z,24.95
2019-04-28T01:07:33.156Z,24.98
2019-04-28T01:08:32.780Z,24.98
2019-04-28T01:09:32.824Z,25.00
2019-04-28T01:10:32.875Z,24.94
2019-04-28T01:11:32.917Z,24.95
2019-04-28T01:12:32.971Z,24.92
2019-04-28T01:13:33.019Z,24.87
2019-04-28T01:14:33.062Z,24.87
2019-04-28T01:15:33.111Z,24.88
2019-04-28T01:16:33.156Z,24.80
2019-04-28T01:17:33.209Z,24.91
2019-04-28T01:18:33.260Z,24.80
2019-04-28T01:19:33.295Z,24.79
2019-04-28T01:20:33.355Z,24.82
2019-04-28T01:21:33.423Z,24.83
2019-04-28T01:22:33.431Z,24.80
2019-04-28T01:23:33.498Z,24.80
2019-04-28T01:24:33.736Z,24.82
2019-04-28T01:25:33.595Z,24.82
2019-04-28T01:26:33.617Z,24.83
2019-04-28T01:27:33.688Z,24.82
2019-04-28T01:28:33.737Z,24.75
2019-04-28T01:29:33.804Z,24.87
2019-04-28T01:30:33.829Z,24.76
2019-04-28T01:31:33.886Z,24.77
2019-04-28T01:32:33.977Z,24.77
2019-04-28T01:33:33.961Z,24.75
2019-04-28T01:34:34.030Z,24.69
2019-04-28T01:35:34.047Z,24.64
2019-04-28T01:36:34.126Z,24.64
2019-04-28T01:37:34.171Z,24.75
2019-04-28T01:38:34.214Z,24.73
2019-04-28T01:39:34.239Z,24.75
2019-04-28T01:40:34.309Z,24.60
2019-04-28T01:41:34.367Z,24.59
2019-04-28T01:42:34.421Z,24.64
2019-04-28T01:43:34.450Z,24.59
2019-04-28T01:44:34.473Z,24.61
2019-04-28T01:45:34.557Z,24.63
2019-04-28T01:46:34.593Z,24.64
2019-04-28T01:47:34.648Z,24.67
2019-04-28T01:48:34.675Z,24.57
2019-04-28T01:49:34.716Z,24.56
2019-04-28T01:50:34.790Z,24.61
2019-04-28T01:51:34.814Z,24.69
2019-04-28T01:52:34.885Z,24.60
2019-04-28T01:53:34.913Z,24.67
2019-04-28T01:54:34.950Z,24.60
2019-04-28T01:55:35.017Z,24.57
2019-04-28T01:56:35.040Z,24.63
2019-04-28T01:57:35.082Z,24.47
2019-04-28T01:58:35.142Z,24.52
2019-04-28T01:59:35.192Z,24.42
2019-04-28T02:00:35.258Z,24.41
2019-04-28T02:01:35.318Z,24.42
2019-04-28T02:02:35.336Z,24.37
2019-04-28T02:03:35.433Z,24.37
2019-04-28T02:04:35.438Z,24.35
2019-04-28T02:05:35.484Z,24.39
2019-04-28T02:06:35.535Z,24.42
2019-04-28T02:07:35.578Z,24.41
2019-04-28T02:08:35.660Z,24.44
2019-04-28T02:09:35.669Z,24.47
2019-04-28T02:10:35.732Z,24.38
2019-04-28T02:11:35.772Z,24.35
2019-04-28T02:12:35.822Z,24.29
2019-04-28T02:13:35.901Z,24.31
2019-04-28T02:14:35.899Z,24.27
2019-04-28T02:15:35.970Z,24.29
2019-04-28T02:16:36.031Z,24.32
2019-04-28T02:17:36.057Z,24.29
2019-04-28T02:18:36.112Z,24.27
2019-04-28T02:19:36.180Z,24.31
2019-04-28T02:20:36.195Z,24.32
2019-04-28T02:21:36.259Z,24.27
2019-04-28T02:22:36.307Z,24.24
2019-04-28T02:23:36.347Z,24.31
2019-04-28T02:24:36.393Z,24.23
2019-04-28T02:25:36.444Z,24.32
2019-04-28T02:26:36.493Z,24.29
2019-04-28T02:27:36.516Z,24.27
2019-04-28T02:28:36.588Z,24.22
2019-04-28T02:29:36.610Z,24.24
2019-04-28T02:30:45.316Z,24.22
2019-04-28T02:31:36.708Z,24.23
2019-04-28T02:32:36.808Z,24.23
2019-04-28T02:33:36.818Z,24.23
2019-04-28T02:34:36.861Z,24.17
2019-04-28T02:35:36.945Z,24.13
2019-04-28T02:36:36.947Z,24.17
2019-04-28T02:37:37.013Z,24.17
2019-04-28T02:38:37.066Z,24.20
2019-04-28T02:39:37.086Z,24.22
2019-04-28T02:40:37.148Z,24.16
2019-04-28T02:41:37.183Z,24.17
2019-04-28T02:42:37.428Z,24.14
2019-04-28T02:43:37.288Z,24.24
2019-04-28T02:44:37.344Z,24.13
2019-04-28T02:45:37.373Z,24.13
2019-04-28T02:46:37.421Z,24.19
2019-04-28T02:47:37.475Z,24.26
2019-04-28T02:48:37.535Z,24.16
2019-04-28T02:49:40.342Z,24.14
2019-04-28T02:50:37.619Z,24.13
2019-04-28T02:51:37.676Z,24.08
2019-04-28T02:52:37.706Z,24.05
2019-04-28T02:53:37.792Z,24.14
2019-04-28T02:54:40.283Z,24.10
2019-04-28T02:55:37.854Z,24.14
2019-04-28T02:56:40.863Z,24.10
2019-04-28T02:57:40.407Z,24.08
2019-04-28T02:58:38.016Z,24.07
2019-04-28T02:59:40.996Z,24.01
2019-04-28T03:00:38.091Z,24.01
2019-04-28T03:01:40.754Z,23.97
2019-04-28T03:02:38.195Z,24.12
2019-04-28T03:03:40.665Z,24.08
2019-04-28T03:04:40.813Z,24.08
2019-04-28T03:05:41.004Z,24.10
2019-04-28T03:06:40.696Z,24.14
2019-04-28T03:07:40.727Z,24.08
2019-04-28T03:08:40.427Z,24.10
2019-04-28T03:09:40.354Z,24.05
2019-04-28T03:10:41.021Z,24.17
2019-04-28T03:11:41.063Z,24.07
2019-04-28T03:12:41.143Z,24.08
2019-04-28T03:13:41.147Z,24.08
2019-04-28T03:14:40.788Z,24.05
2019-04-28T03:15:41.286Z,24.07
2019-04-28T03:16:41.045Z,24.00
2019-04-28T03:17:40.658Z,24.10
2019-04-28T03:18:41.074Z,24.05
2019-04-28T03:19:41.659Z,24.08
2019-04-28T03:20:41.533Z,23.98
2019-04-28T03:21:41.628Z,24.01
2019-04-28T03:22:40.774Z,24.04
2019-04-28T03:23:40.509Z,24.01
2019-04-28T03:24:41.338Z,24.05
2019-04-28T03:25:40.729Z,24.13
2019-04-28T03:26:41.424Z,24.16
2019-04-28T03:27:40.511Z,24.13
2019-04-28T03:28:41.399Z,24.05
2019-04-28T03:29:40.350Z,24.12
2019-04-28T03:30:43.941Z,24.08
2019-04-28T03:32:07.161Z,24.10
2019-04-28T03:32:52.330Z,24.13
2019-04-28T03:33:47.468Z,24.12
2019-04-28T03:34:43.693Z,24.04
2019-04-28T03:35:43.982Z,24.10
2019-04-28T03:36:40.871Z,24.13
2019-04-28T03:37:41.381Z,24.13
2019-04-28T03:38:40.619Z,24.14
2019-04-28T03:39:40.590Z,24.13
2019-04-28T03:40:41.379Z,24.16
2019-04-28T03:41:40.641Z,24.14
2019-04-28T03:42:41.086Z,24.20
2019-04-28T03:43:40.748Z,24.10
2019-04-28T03:44:41.487Z,24.08
2019-04-28T03:45:41.053Z,24.01
2019-04-28T03:46:41.317Z,24.12
2019-04-28T03:47:40.801Z,24.12
2019-04-28T03:48:40.900Z,24.14
2019-04-28T03:49:43.212Z,24.13
2019-04-28T03:50:41.310Z,24.13
2019-04-28T03:51:40.915Z,24.05
2019-04-28T03:52:41.416Z,24.10
2019-04-28T03:53:41.122Z,24.07
2019-04-28T03:54:41.221Z,24.08
2019-04-28T03:55:41.628Z,24.01
2019-04-28T03:56:41.378Z,24.16
2019-04-28T03:57:41.355Z,24.16
2019-04-28T03:58:40.879Z,24.07
2019-04-28T03:59:43.514Z,24.10
2019-04-28T04:00:41.099Z,24.07
2019-04-28T04:01:55.322Z,24.04
2019-04-28T04:02:41.434Z,24.08
2019-04-28T04:03:41.938Z,24.04
2019-04-28T04:04:41.592Z,24.07
2019-04-28T04:05:41.228Z,24.01
2019-04-28T04:06:41.190Z,23.98
2019-04-28T04:07:43.236Z,24.02
2019-04-28T04:08:41.328Z,24.01
2019-04-28T04:09:41.549Z,24.05
2019-04-28T04:10:41.357Z,24.14
2019-04-28T04:11:41.472Z,24.02
2019-04-28T04:12:41.547Z,24.00
2019-04-28T04:13:41.845Z,24.00
2019-04-28T04:14:41.718Z,23.97
2019-04-28T04:15:41.751Z,23.98
2019-04-28T04:16:41.690Z,23.97
2019-04-28T04:17:41.676Z,23.98
2019-04-28T04:18:41.787Z,24.00
2019-04-28T04:19:41.820Z,24.04
2019-04-28T04:20:41.985Z,23.98
2019-04-28T04:21:41.984Z,23.98
2019-04-28T04:22:41.963Z,23.82
2019-04-28T04:23:42.001Z,23.98
2019-04-28T04:24:42.002Z,23.82
2019-04-28T04:25:42.103Z,23.89
2019-04-28T04:26:42.100Z,23.82
2019-04-28T04:27:42.171Z,23.90
2019-04-28T04:28:42.220Z,23.86
2019-04-28T04:29:43.587Z,23.83
2019-04-28T04:30:42.358Z,23.80
2019-04-28T04:31:42.446Z,23.77
2019-04-28T04:32:42.371Z,23.77
2019-04-28T04:33:42.473Z,23.82
2019-04-28T04:34:42.485Z,23.72
2019-04-28T04:35:43.750Z,23.65
2019-04-28T04:36:42.672Z,23.65
2019-04-28T04:37:42.777Z,23.70
2019-04-28T04:38:46.001Z,23.58
2019-04-28T04:39:42.765Z,23.64
2019-04-28T04:40:42.795Z,23.55
2019-04-28T04:41:43.813Z,23.52
2019-04-28T04:42:42.843Z,23.50
2019-04-28T04:43:43.058Z,23.47
2019-04-28T04:44:43.022Z,23.43
2019-04-28T04:45:43.047Z,23.45
2019-04-28T04:46:43.048Z,23.46
2019-04-28T04:47:43.084Z,23.39
2019-04-28T04:48:43.129Z,23.40
2019-04-28T04:49:43.223Z,23.40
2019-04-28T04:50:43.270Z,23.45
2019-04-28T04:51:43.937Z,23.34
2019-04-28T04:52:43.309Z,23.38
2019-04-28T04:53:43.373Z,23.49
2019-04-28T04:54:43.456Z,23.46
2019-04-28T04:55:43.469Z,23.40
2019-04-28T04:56:43.503Z,23.40
2019-04-28T04:57:43.558Z,23.35
2019-04-28T04:58:43.590Z,23.34
2019-04-28T04:59:43.630Z,23.34
2019-04-28T05:00:43.690Z,23.34
2019-04-28T05:01:43.716Z,23.40
2019-04-28T05:02:51.153Z,23.35
2019-04-28T05:03:43.849Z,23.27
2019-04-28T05:04:43.878Z,23.29
2019-04-28T05:05:43.909Z,23.31
2019-04-28T05:06:43.956Z,23.27
2019-04-28T05:07:44.070Z,23.26
2019-04-28T05:08:44.067Z,23.14
2019-04-28T05:09:44.101Z,23.23
2019-04-28T05:10:44.158Z,23.23
2019-04-28T05:11:44.223Z,23.12
2019-04-28T05:12:44.268Z,23.24
2019-04-28T05:13:44.312Z,23.22
2019-04-28T05:14:44.336Z,23.20
2019-04-28T05:15:44.391Z,23.23
2019-04-28T05:16:44.456Z,23.20
2019-04-28T05:17:44.518Z,23.17
2019-04-28T05:18:44.541Z,23.24
2019-04-28T05:19:44.596Z,23.14
2019-04-28T05:20:44.612Z,23.09
2019-04-28T05:21:44.675Z,23.09
2019-04-28T05:22:44.730Z,23.08
2019-04-28T05:23:44.804Z,23.22
2019-04-28T05:24:46.138Z,23.17
2019-04-28T05:25:44.857Z,23.15
2019-04-28T05:26:47.865Z,23.14
2019-04-28T05:27:44.963Z,23.19
2019-04-28T05:28:51.521Z,23.09
2019-04-28T05:29:45.060Z,23.12
2019-04-28T05:30:45.082Z,23.08
2019-04-28T05:31:45.152Z,22.97
2019-04-28T05:32:49.851Z,23.15
2019-04-28T05:33:45.224Z,23.17
2019-04-28T05:34:46.596Z,23.12
2019-04-28T05:35:45.313Z,23.23
2019-04-28T05:36:45.370Z,23.17
2019-04-28T05:37:45.418Z,23.20
2019-04-28T05:38:45.459Z,23.17
2019-04-28T05:39:45.507Z,23.23
2019-04-28T05:40:45.551Z,23.19
2019-04-28T05:41:45.608Z,23.23
2019-04-28T05:42:45.651Z,23.14
2019-04-28T05:43:45.710Z,23.12
2019-04-28T05:44:45.768Z,23.24
2019-04-28T05:45:45.775Z,23.23
2019-04-28T05:46:45.821Z,23.15
2019-04-28T05:47:45.903Z,23.26
2019-04-28T05:48:45.915Z,23.14
2019-04-28T05:49:45.955Z,23.19
2019-04-28T05:50:46.032Z,23.23
2019-04-28T05:51:46.074Z,23.17
2019-04-28T05:52:46.095Z,23.15
2019-04-28T05:53:46.144Z,23.19
2019-04-28T05:54:46.214Z,23.19
2019-04-28T05:55:46.248Z,23.20
2019-04-28T05:56:46.291Z,23.14
2019-04-28T05:57:46.354Z,23.20
2019-04-28T05:58:46.394Z,23.12
2019-04-28T05:59:46.449Z,23.15
2019-04-28T06:00:46.475Z,23.22
2019-04-28T06:01:46.530Z,23.14
2019-04-28T06:02:54.122Z,23.14
2019-04-28T06:03:46.609Z,23.17
2019-04-28T06:04:46.649Z,23.20
2019-04-28T06:05:46.705Z,23.15
2019-04-28T06:06:46.751Z,23.17
2019-04-28T06:07:46.810Z,23.23
2019-04-28T06:08:46.910Z,23.15
2019-04-28T06:09:46.883Z,23.19
2019-04-28T06:10:46.928Z,23.14
2019-04-28T06:11:46.992Z,23.15
2019-04-28T06:12:47.043Z,23.11
2019-04-28T06:13:47.078Z,23.23
2019-04-28T06:14:47.118Z,23.23
2019-04-28T06:15:47.205Z,23.20
2019-04-28T06:16:47.209Z,23.17
2019-04-28T06:17:47.273Z,23.12
2019-04-28T06:18:47.311Z,23.17
2019-04-28T06:19:47.327Z,23.14
2019-04-28T06:20:47.405Z,23.12
2019-04-28T06:21:47.483Z,23.15
2019-04-28T06:22:47.507Z,23.17
2019-04-28T06:23:47.545Z,23.23
2019-04-28T06:24:47.574Z,23.20
2019-04-28T06:25:47.608Z,23.19
2019-04-28T06:26:47.680Z,23.11
2019-04-28T06:27:47.722Z,23.20
2019-04-28T06:28:47.767Z,23.12
2019-04-28T06:29:47.838Z,23.15
2019-04-28T06:30:47.870Z,23.11
2019-04-28T06:31:47.953Z,23.09
2019-04-28T06:32:47.945Z,23.15
2019-04-28T06:33:47.998Z,23.01
2019-04-28T06:34:48.083Z,23.05
2019-04-28T06:35:48.080Z,23.01
2019-04-28T06:36:48.121Z,22.99
2019-04-28T06:37:48.172Z,23.05
2019-04-28T06:38:48.214Z,23.01
2019-04-28T06:39:48.262Z,23.07
2019-04-28T06:40:48.351Z,23.02
2019-04-28T06:41:48.361Z,23.09
2019-04-28T06:42:48.406Z,23.02
2019-04-28T06:43:48.458Z,23.04
2019-04-28T06:44:48.516Z,23.09
2019-04-28T06:45:48.573Z,22.96
2019-04-28T06:46:48.640Z,23.04
2019-04-28T06:47:48.701Z,23.07
2019-04-28T06:48:48.675Z,23.07
2019-04-28T06:49:48.738Z,23.01
2019-04-28T06:50:48.789Z,22.99
2019-04-28T06:51:48.841Z,22.96
2019-04-28T06:52:48.856Z,23.01
2019-04-28T06:53:48.915Z,22.99
2019-04-28T06:54:49.018Z,22.96
2019-04-28T06:55:49.014Z,22.99
2019-04-28T06:56:49.058Z,22.96
2019-04-28T06:57:49.092Z,23.02
2019-04-28T06:58:58.809Z,22.92
2019-04-28T06:59:49.193Z,22.93
2019-04-28T07:00:49.252Z,22.90
2019-04-28T07:01:49.306Z,22.93
2019-04-28T07:02:49.342Z,22.94
2019-04-28T07:03:49.387Z,22.97
2019-04-28T07:05:00.937Z,22.93
2019-04-28T07:05:49.469Z,22.87
2019-04-28T07:06:49.539Z,22.92
2019-04-28T07:07:49.604Z,22.93
2019-04-28T07:08:49.606Z,22.84
2019-04-28T07:09:49.655Z,22.89
2019-04-28T07:10:49.703Z,22.82
2019-04-28T07:11:49.743Z,22.94
2019-04-28T07:12:49.791Z,22.94
2019-04-28T07:13:49.832Z,22.97
2019-04-28T07:14:49.892Z,22.94
2019-04-28T07:15:49.912Z,22.89
2019-04-28T07:16:49.957Z,23.02
2019-04-28T07:17:50.065Z,22.94
2019-04-28T07:18:50.054Z,22.93
2019-04-28T07:19:50.145Z,22.87
2019-04-28T07:20:50.167Z,22.89
2019-04-28T07:21:50.202Z,22.93
2019-04-28T07:22:50.239Z,22.96
2019-04-28T07:23:50.289Z,22.99
2019-04-28T07:24:50.334Z,22.99
2019-04-28T07:25:50.370Z,23.01
2019-04-28T07:26:50.441Z,22.99
2019-04-28T07:27:50.471Z,22.93
2019-04-28T07:28:50.526Z,22.97
2019-04-28T07:29:50.580Z,22.86
2019-04-28T07:30:50.614Z,22.96
2019-04-28T07:31:50.639Z,22.87
2019-04-28T07:32:50.759Z,22.89
2019-04-28T07:33:50.772Z,22.97
2019-04-28T07:34:50.784Z,22.86
2019-04-28T07:35:50.854Z,22.89
2019-04-28T07:36:50.904Z,22.90
2019-04-28T07:37:50.928Z,22.94
2019-04-28T07:38:51.036Z,23.05
2019-04-28T07:39:51.024Z,22.90
2019-04-28T07:40:51.092Z,22.92
2019-04-28T07:41:51.171Z,22.87
2019-04-28T07:42:51.169Z,22.89
2019-04-28T07:43:51.195Z,22.86
2019-04-28T07:44:51.280Z,22.87
2019-04-28T07:45:51.294Z,22.93
2019-04-28T07:46:51.384Z,22.90
2019-04-28T07:47:51.403Z,22.92
2019-04-28T07:48:52.463Z,22.92
2019-04-28T07:49:51.493Z,22.94
2019-04-28T07:50:51.527Z,22.89
2019-04-28T07:51:51.585Z,22.92
2019-04-28T07:52:51.622Z,22.92
2019-04-28T07:53:51.686Z,22.93
2019-04-28T07:54:51.721Z,22.80
2019-04-28T07:55:51.752Z,22.86
2019-04-28T07:56:51.830Z,22.84
2019-04-28T07:57:51.849Z,22.83
2019-04-28T07:58:51.905Z,22.84
2019-04-28T07:59:51.941Z,22.84
2019-04-28T08:00:51.992Z,22.82
2019-04-28T08:01:52.022Z,22.75
2019-04-28T08:02:52.072Z,22.74
2019-04-28T08:03:52.133Z,22.74
2019-04-28T08:04:52.161Z,22.75
2019-04-28T08:05:52.218Z,22.80
2019-04-28T08:06:52.269Z,22.62
2019-04-28T08:07:52.313Z,22.71
2019-04-28T08:08:52.346Z,22.68
2019-04-28T08:09:52.409Z,22.65
2019-04-28T08:10:52.422Z,22.62
2019-04-28T08:11:52.518Z,22.65
2019-04-28T08:12:52.548Z,22.56
2019-04-28T08:13:52.573Z,22.50
2019-04-28T08:14:52.601Z,22.54
2019-04-28T08:15:52.666Z,22.57
2019-04-28T08:16:52.695Z,22.54
2019-04-28T08:17:52.801Z,22.52
2019-04-28T08:18:52.806Z,22.49
2019-04-28T08:19:52.851Z,22.52
2019-04-28T08:20:52.926Z,22.38
2019-04-28T08:21:52.930Z,22.52
2019-04-28T08:22:53.011Z,22.38
2019-04-28T08:23:53.059Z,22.41
2019-04-28T08:24:53.097Z,22.52
2019-04-28T08:25:53.132Z,22.37
2019-04-28T08:26:53.174Z,22.41
2019-04-28T08:27:53.233Z,22.37
2019-04-28T08:28:53.254Z,22.38
2019-04-28T08:29:58.555Z,22.29
2019-04-28T08:30:53.342Z,22.41
2019-04-28T08:31:53.414Z,22.37
2019-04-28T08:32:53.456Z,22.53
2019-04-28T08:34:02.245Z,22.54
2019-04-28T08:34:53.567Z,22.54
2019-04-28T08:35:53.583Z,22.50
2019-04-28T08:36:53.631Z,22.56
2019-04-28T08:37:53.675Z,22.54
2019-04-28T08:38:53.721Z,22.53
2019-04-28T08:39:53.772Z,22.59
2019-04-28T08:40:53.813Z,22.53
2019-04-28T08:41:53.845Z,22.47
2019-04-28T08:42:53.895Z,22.54
2019-04-28T08:43:54.000Z,22.60
2019-04-28T08:44:54.000Z,22.56
2019-04-28T08:45:54.212Z,22.53
2019-04-28T08:46:54.078Z,22.59
2019-04-28T08:47:54.145Z,22.52
2019-04-28T08:48:54.166Z,22.57
2019-04-28T08:49:54.234Z,22.56
2019-04-28T08:50:54.277Z,22.65
2019-04-28T08:51:54.328Z,22.60
2019-04-28T08:52:54.364Z,22.67
2019-04-28T08:53:54.413Z,22.65
2019-04-28T08:54:54.441Z,22.54
2019-04-28T08:55:54.512Z,22.49
2019-04-28T08:56:54.572Z,22.54
2019-04-28T08:57:54.583Z,22.56
2019-04-28T08:58:54.657Z,22.53
2019-04-28T08:59:54.682Z,22.53
2019-04-28T09:00:54.735Z,22.54
2019-04-28T09:01:54.792Z,22.53
2019-04-28T09:02:54.855Z,22.47
2019-04-28T09:03:54.902Z,22.60
2019-04-28T09:04:54.933Z,22.54
2019-04-28T09:05:54.950Z,22.53
2019-04-28T09:06:55.023Z,22.54
2019-04-28T09:07:55.042Z,22.41
2019-04-28T09:08:55.127Z,22.39
2019-04-28T09:09:55.122Z,22.35
2019-04-28T09:10:55.187Z,22.35
2019-04-28T09:11:55.237Z,22.39
2019-04-28T09:12:55.270Z,22.39
2019-04-28T09:13:55.326Z,22.41
2019-04-28T09:14:55.427Z,22.41
2019-04-28T09:15:55.410Z,22.35
2019-04-28T09:16:55.444Z,22.37
2019-04-28T09:17:55.496Z,22.32
2019-04-28T09:18:55.536Z,22.32
2019-04-28T09:19:55.609Z,22.29
2019-04-28T09:20:55.638Z,22.27
2019-04-28T09:21:55.732Z,22.27
2019-04-28T09:22:55.727Z,22.37
2019-04-28T09:23:55.770Z,22.22
2019-04-28T09:24:55.822Z,22.35
2019-04-28T09:25:55.844Z,22.25
2019-04-28T09:26:55.915Z,22.22
2019-04-28T09:27:55.945Z,22.35
2019-04-28T09:28:56.016Z,22.29
2019-04-28T09:29:56.044Z,22.38
2019-04-28T09:30:56.087Z,22.43
2019-04-28T09:31:56.138Z,22.39
2019-04-28T09:32:56.186Z,22.35
2019-04-28T09:33:56.234Z,22.37
2019-04-28T09:34:56.274Z,22.44
2019-04-28T09:35:56.320Z,22.35
2019-04-28T09:36:56.418Z,22.39
2019-04-28T09:37:56.384Z,22.43
2019-04-28T09:38:56.467Z,22.34
2019-04-28T09:39:56.505Z,22.37
2019-04-28T09:40:56.536Z,22.32
2019-04-28T09:41:56.591Z,22.32
2019-04-28T09:42:56.628Z,22.44
2019-04-28T09:43:56.695Z,22.44
2019-04-28T09:44:56.739Z,22.37
2019-04-28T09:45:56.764Z,22.35
2019-04-28T09:46:56.827Z,22.35
2019-04-28T09:47:56.859Z,22.39
2019-04-28T09:48:56.948Z,22.35
2019-04-28T09:49:56.941Z,22.37
2019-04-28T09:50:56.996Z,22.38
2019-04-28T09:51:57.049Z,22.47
2019-04-28T09:52:57.095Z,22.39
2019-04-28T09:53:57.139Z,22.38
2019-04-28T09:54:57.176Z,22.41
2019-04-28T09:55:57.220Z,22.59
2019-04-28T09:56:57.326Z,22.67
2019-04-28T09:57:57.320Z,22.75
2019-04-28T09:58:57.370Z,22.96
2019-04-28T09:59:57.429Z,23.04
2019-04-28T10:00:57.443Z,23.15
2019-04-28T10:01:57.512Z,23.23
2019-04-28T10:02:57.551Z,23.29
2019-04-28T10:03:57.583Z,23.43
2019-04-28T10:04:57.684Z,23.50
2019-04-28T10:05:57.666Z,23.65
2019-04-28T10:06:57.736Z,23.86
2019-04-28T10:07:57.788Z,24.10
2019-04-28T10:08:57.888Z,24.44
2019-04-28T10:09:57.922Z,24.75
2019-04-28T10:10:57.920Z,24.94
2019-04-28T10:11:57.970Z,25.19
2019-04-28T10:12:58.018Z,25.39
2019-04-28T10:13:58.043Z,25.74
2019-04-28T10:14:58.109Z,25.98
2019-04-28T10:15:58.160Z,26.25
2019-04-28T10:16:58.224Z,26.42
2019-04-28T10:17:58.260Z,26.89
2019-04-28T10:18:58.293Z,27.09
2019-04-28T10:19:58.356Z,27.13
2019-04-28T10:20:58.392Z,26.99
2019-04-28T10:21:58.432Z,27.01
2019-04-28T10:22:58.490Z,27.05
2019-04-28T10:23:58.527Z,27.14
2019-04-28T10:24:58.567Z,27.04
2019-04-28T10:25:58.690Z,26.76
2019-04-28T10:26:58.673Z,26.69
2019-04-28T10:27:58.752Z,26.68
2019-04-28T10:28:58.820Z,26.89
2019-04-28T10:29:58.828Z,27.06
2019-04-28T10:30:58.901Z,26.91
2019-04-28T10:31:58.935Z,26.67
2019-04-28T10:32:59.039Z,26.74
2019-04-28T10:33:59.035Z,26.59
2019-04-28T10:34:59.084Z,26.59
2019-04-28T10:35:59.135Z,26.68
2019-04-28T10:36:59.187Z,26.73
2019-04-28T10:37:59.249Z,27.11
2019-04-28T10:38:59.297Z,27.21
2019-04-28T10:39:59.346Z,27.36
2019-04-28T10:40:59.378Z,27.57
2019-04-28T10:41:59.433Z,27.79
2019-04-28T10:42:59.496Z,28.33
2019-04-28T10:43:59.549Z,28.63
2019-04-28T10:44:59.628Z,28.73
2019-04-28T10:45:59.652Z,28.66
2019-04-28T10:46:59.701Z,28.77
2019-04-28T10:47:59.737Z,28.75
2019-04-28T10:48:59.782Z,29.01
2019-04-28T10:49:59.826Z,29.20
2019-04-28T10:51:01.294Z,29.44
2019-04-28T10:51:59.940Z,29.82
2019-04-28T10:53:00.005Z,29.89
2019-04-28T10:54:00.061Z,29.66
2019-04-28T10:55:00.086Z,29.50
2019-04-28T10:56:00.152Z,29.65
2019-04-28T10:57:00.249Z,29.87
2019-04-28T10:58:00.261Z,30.15
2019-04-28T10:59:00.316Z,30.54
2019-04-28T11:00:00.351Z,30.80
2019-04-28T11:01:00.391Z,31.06
2019-04-28T11:02:00.483Z,31.24
2019-04-28T11:03:00.525Z,31.43
2019-04-28T11:04:00.582Z,31.30
2019-04-28T11:05:08.085Z,31.04
2019-04-28T11:06:00.664Z,30.78
2019-04-28T11:07:00.740Z,30.46
2019-04-28T11:08:00.770Z,30.31
2019-04-28T11:09:00.836Z,29.97
2019-04-28T11:10:00.908Z,29.81
2019-04-28T11:11:00.953Z,29.60
2019-04-28T11:12:01.015Z,29.25
2019-04-28T11:13:01.042Z,29.13
2019-04-28T11:14:01.102Z,29.15
2019-04-28T11:15:01.172Z,29.25
2019-04-28T11:16:01.220Z,29.49
2019-04-28T11:17:01.261Z,29.81
2019-04-28T11:18:01.331Z,30.34
2019-04-28T11:19:01.420Z,30.54
2019-04-28T11:20:01.464Z,30.91
2019-04-28T11:21:01.466Z,30.68
2019-04-28T11:22:01.533Z,30.74
2019-04-28T11:23:01.569Z,30.91
2019-04-28T11:24:01.637Z,31.12
2019-04-28T11:25:01.668Z,31.17
2019-04-28T11:26:01.734Z,31.09
2019-04-28T11:27:01.785Z,31.01
2019-04-28T11:28:01.826Z,30.65
2019-04-28T11:29:01.903Z,30.16
2019-04-28T11:30:01.951Z,30.30
2019-04-28T11:31:01.996Z,30.14
2019-04-28T11:32:02.087Z,30.14
2019-04-28T11:33:02.103Z,30.36
2019-04-28T11:34:02.153Z,30.14
2019-04-28T11:35:02.221Z,30.54
2019-04-28T11:36:02.283Z,30.75
2019-04-28T11:37:02.334Z,30.65
2019-04-28T11:38:02.371Z,30.57
2019-04-28T11:39:02.443Z,30.61
2019-04-28T11:40:02.501Z,30.47
2019-04-28T11:41:02.521Z,30.64
2019-04-28T11:42:02.575Z,30.80
2019-04-28T11:43:02.648Z,31.38
2019-04-28T11:44:02.710Z,31.62
2019-04-28T11:45:02.752Z,31.55
2019-04-28T11:46:02.817Z,31.45
2019-04-28T11:47:02.869Z,31.73
2019-04-28T11:48:02.897Z,32.03
2019-04-28T11:49:02.958Z,32.61
2019-04-28T11:50:03.015Z,32.35
2019-04-28T11:51:03.172Z,32.18
2019-04-28T11:52:03.129Z,32.30
2019-04-28T11:53:03.197Z,32.58
2019-04-28T11:54:03.250Z,32.70
2019-04-28T11:55:03.277Z,32.36
2019-04-28T11:56:03.347Z,32.18
2019-04-28T11:57:03.415Z,31.98
2019-04-28T11:58:03.485Z,31.95
2019-04-28T11:59:03.515Z,32.22
2019-04-28T12:00:03.563Z,32.35
2019-04-28T12:01:03.617Z,32.52
2019-04-28T12:02:03.692Z,32.37
2019-04-28T12:03:03.755Z,32.85
2019-04-28T12:04:03.788Z,32.79
2019-04-28T12:05:03.874Z,32.52
2019-04-28T12:06:03.910Z,32.59
2019-04-28T12:07:03.977Z,32.42
2019-04-28T12:08:04.055Z,32.27
2019-04-28T12:09:04.066Z,32.18
2019-04-28T12:10:05.799Z,31.87
2019-04-28T12:11:04.195Z,32.18
2019-04-28T12:12:04.239Z,32.61
2019-04-28T12:13:04.283Z,32.61
2019-04-28T12:14:04.359Z,32.85
2019-04-28T12:15:04.409Z,32.96
2019-04-28T12:16:04.469Z,33.29
2019-04-28T12:17:04.506Z,33.41
2019-04-28T12:18:04.569Z,33.55
2019-04-28T12:19:04.635Z,33.31
2019-04-28T12:20:04.704Z,32.88
2019-04-28T12:21:04.748Z,32.76
2019-04-28T12:22:04.803Z,32.49
2019-04-28T12:23:04.853Z,32.80
2019-04-28T12:24:04.913Z,33.45
2019-04-28T12:25:04.946Z,33.87
2019-04-28T12:26:05.086Z,34.29
2019-04-28T12:27:05.071Z,34.79
2019-04-28T12:28:05.143Z,34.98
2019-04-28T12:29:05.197Z,34.96
2019-04-28T12:30:05.224Z,34.96
2019-04-28T12:31:05.439Z,34.73
2019-04-28T12:32:05.360Z,34.27
2019-04-28T12:33:05.412Z,34.29
2019-04-28T12:34:05.470Z,34.44
2019-04-28T12:35:05.536Z,34.77
2019-04-28T12:36:05.592Z,34.92
2019-04-28T12:37:05.660Z,34.89
2019-04-28T12:38:05.711Z,34.17
2019-04-28T12:39:05.754Z,33.90
2019-04-28T12:40:05.829Z,33.86
2019-04-28T12:41:05.871Z,34.05
2019-04-28T12:42:05.947Z,33.89
2019-04-28T12:43:05.998Z,34.22
2019-04-28T12:44:06.063Z,34.39
2019-04-28T12:45:06.105Z,34.56
2019-04-28T12:46:06.156Z,34.41
2019-04-28T12:47:06.203Z,34.29
2019-04-28T12:48:06.270Z,34.35
2019-04-28T12:49:06.327Z,34.44
2019-04-28T12:50:06.386Z,34.22
2019-04-28T12:51:06.455Z,34.29
2019-04-28T12:52:06.515Z,34.23
2019-04-28T12:53:06.541Z,33.98